ES-0232 weather

Aeródromo del Jarde
Antigua, Canary Islands, Spain

Public forecast

Using degrees Celsius for public forecast. Weather courtesy of forecast.io.

Closest aviation weather report (METAR) to Aeródromo del Jarde

Closest report is Fuerteventura Airport, 7.3 nm (13.5 km) ENE. Retrieved 2019/12/12 21:30 UTC (0 seconds ago):

GCFV 122130Z 03018KT 9999 BKN035 19/12 Q1027

Closest aviation forecast (TAF) to Aeródromo del Jarde

Closest forecast is Fuerteventura Airport, 7.3 nm (13.5 km) ENE. Retrieved 2019/12/12 21:27 UTC (0 seconds ago):

TAF TAF GCFV 122000Z 1221/1321 03018KT 9999 BKN025 TX22/1314Z TN17/1306Z